Morven, Georgia
Current Conditions -  °F | °C
As of 9:53 PM on Wednesday 22 Oct 2014 (Local Time) from KVLD Reporting Station
Clear Clear  
Wind Chill: 53°   Ceiling: Unl
Heat Index: 53°   Visibility: 10mi
Dew Point: 45°   Wind: 0mph
Humidity: 74%   Direction: NA
Pressure: 30.06"   Gusts: NA
Location:  30.94°N, 83.5°W
Report Text: KVLD 230153Z 00000KT 10SM CLR 12/07 A3006 RMK AO2 SLP188 T01170072
Loading
Personal Weather Stations






























Interactive Weather Map
Tropical Storm Tracking
New forecast layout! Learn more

10-Day Weather Forecast

Advertisements
Track Severe Weather on mobile